Time,TemperatureF,DewpointF,PressureIn,WindDirection,WindDirectionDegrees,WindSpeedMPH,WindSpeedGustMPH,Humidity,HourlyPrecipIn,Conditions,Clouds,dailyrainin,SoftwareType,DateUTC
2013-04-23 00:13:00,46.4,38.2,30.26,NE,45,1.6,-999.0,73,-99.99,,,0.00,Acu-Link.com,2013-04-23 04:13:00,
2013-04-23 00:28:00,43.2,37.7,30.26,NW,315,0.0,-999.0,81,-99.99,,,0.00,Acu-Link.com,2013-04-23 04:28:00,
2013-04-23 00:43:00,41.9,37.4,30.26,NW,315,2.2,-999.0,84,-99.99,,,0.00,Acu-Link.com,2013-04-23 04:43:00,
2013-04-23 00:59:00,41.0,37.1,30.26,West,270,1.1,-999.0,86,-99.99,,,0.00,Acu-Link.com,2013-04-23 04:59:00,
2013-04-23 01:14:00,40.5,37.2,30.26,West,270,0.0,-999.0,88,-99.99,,,0.00,Acu-Link.com,2013-04-23 05:14:00,
2013-04-23 01:29:00,39.4,36.4,30.26,West,270,0.0,-999.0,89,-99.99,,,0.00,Acu-Link.com,2013-04-23 05:29:00,
2013-04-23 01:44:00,39.2,37.1,30.26,West,270,0.0,-999.0,92,-99.99,,,0.00,Acu-Link.com,2013-04-23 05:44:00,
2013-04-23 01:59:00,40.1,38.0,30.26,West,270,2.2,-999.0,92,-99.99,,,0.00,Acu-Link.com,2013-04-23 05:59:00,
2013-04-23 02:15:00,39.7,37.3,30.26,West,270,2.2,-999.0,91,-99.99,,,0.00,Acu-Link.com,2013-04-23 06:15:00,
2013-04-23 02:30:00,39.7,37.9,30.25,West,270,1.6,-999.0,93,-99.99,,,0.00,Acu-Link.com,2013-04-23 06:30:00,
2013-04-23 02:45:00,39.6,37.7,30.25,WSW,247,2.7,-999.0,93,-99.99,,,0.00,Acu-Link.com,2013-04-23 06:45:00,
2013-04-23 03:00:00,39.0,37.2,30.24,WSW,247,0.0,-999.0,93,-99.99,,,0.00,Acu-Link.com,2013-04-23 07:00:00,
2013-04-23 03:15:00,39.7,38.2,30.23,WSW,247,2.7,-999.0,94,-99.99,,,0.00,Acu-Link.com,2013-04-23 07:15:00,
2013-04-23 03:31:00,39.6,37.7,30.24,WSW,247,0.0,-999.0,93,-99.99,,,0.00,Acu-Link.com,2013-04-23 07:31:00,
2013-04-23 03:46:00,40.1,38.2,30.23,WSW,247,2.7,-999.0,93,-99.99,,,0.00,Acu-Link.com,2013-04-23 07:46:00,
2013-04-23 04:01:00,40.5,38.6,30.23,WSW,247,1.1,-999.0,93,-99.99,,,0.00,Acu-Link.com,2013-04-23 08:01:00,
2013-04-23 04:16:00,40.6,38.8,30.22,WSW,247,0.0,-999.0,93,-99.99,,,0.00,Acu-Link.com,2013-04-23 08:16:00,
2013-04-23 04:32:00,41.2,39.0,30.23,WSW,247,1.6,-999.0,92,-99.99,,,0.00,Acu-Link.com,2013-04-23 08:32:00,
2013-04-23 04:47:00,41.4,39.5,30.23,WSW,247,0.0,-999.0,93,-99.99,,,0.00,Acu-Link.com,2013-04-23 08:47:00,
2013-04-23 05:02:00,41.9,39.2,30.23,WSW,247,2.2,-999.0,90,-99.99,,,0.00,Acu-Link.com,2013-04-23 09:02:00,
2013-04-23 05:17:00,42.1,39.6,30.23,WSW,247,0.0,-999.0,91,-99.99,,,0.00,Acu-Link.com,2013-04-23 09:17:00,
2013-04-23 05:32:00,42.3,39.8,30.22,WSW,247,0.0,-999.0,91,-99.99,,,0.00,Acu-Link.com,2013-04-23 09:32:00,
2013-04-23 05:48:00,42.4,40.0,30.22,WSW,247,1.1,-999.0,91,-99.99,,,0.00,Acu-Link.com,2013-04-23 09:48:00,
2013-04-23 06:03:00,42.6,39.9,30.21,WSW,247,1.6,-999.0,90,-99.99,,,0.00,Acu-Link.com,2013-04-23 10:03:00,
2013-04-23 06:18:00,42.8,40.1,30.22,WSW,247,1.6,-999.0,90,-99.99,,,0.00,Acu-Link.com,2013-04-23 10:18:00,
2013-04-23 06:33:00,43.0,40.5,30.21,WSW,247,0.0,-999.0,91,-99.99,,,0.00,Acu-Link.com,2013-04-23 10:33:00,
2013-04-23 06:48:00,43.2,40.4,30.21,WSW,247,1.6,-999.0,90,-99.99,,,0.00,Acu-Link.com,2013-04-23 10:48:00,
2013-04-23 07:04:00,43.5,40.8,30.21,WSW,247,0.0,-999.0,90,-99.99,,,0.00,Acu-Link.com,2013-04-23 11:04:00,
2013-04-23 07:19:00,43.9,41.1,30.21,WSW,247,1.1,-999.0,90,-99.99,,,0.00,Acu-Link.com,2013-04-23 11:19:00,
2013-04-23 07:34:00,44.8,41.7,30.21,WSW,247,0.0,-999.0,89,-99.99,,,0.00,Acu-Link.com,2013-04-23 11:34:00,
2013-04-23 07:49:00,45.3,42.3,30.21,WSW,247,3.1,-999.0,89,-99.99,,,0.00,Acu-Link.com,2013-04-23 11:49:00,
2013-04-23 08:04:00,46.9,43.0,30.21,WSW,247,2.7,-999.0,86,-99.99,,,0.00,Acu-Link.com,2013-04-23 12:04:00,
2013-04-23 08:20:00,47.3,42.4,30.21,WSW,247,2.2,-999.0,83,-99.99,,,0.00,Acu-Link.com,2013-04-23 12:20:00,
2013-04-23 08:35:00,50.0,44.7,30.21,WSW,247,2.7,-999.0,82,-99.99,,,0.00,Acu-Link.com,2013-04-23 12:35:00,
2013-04-23 08:50:00,52.0,43.6,30.21,NE,45,3.8,-999.0,73,-99.99,,,0.00,Acu-Link.com,2013-04-23 12:50:00,
2013-04-23 09:05:00,51.4,43.8,30.21,NE,45,2.7,-999.0,75,-99.99,,,0.00,Acu-Link.com,2013-04-23 13:05:00,
2013-04-23 09:21:00,50.5,42.9,30.21,WNW,292,2.7,-999.0,75,-99.99,,,0.00,Acu-Link.com,2013-04-23 13:21:00,
2013-04-23 09:36:00,51.6,43.6,30.21,NW,315,1.6,-999.0,74,-99.99,,,0.00,Acu-Link.com,2013-04-23 13:36:00,
2013-04-23 09:51:00,52.7,43.9,30.20,NNW,337,1.1,-999.0,72,-99.99,,,0.00,Acu-Link.com,2013-04-23 13:51:00,
2013-04-23 10:06:00,53.4,43.9,30.21,SE,135,1.6,-999.0,70,-99.99,,,0.00,Acu-Link.com,2013-04-23 14:06:00,
2013-04-23 10:21:00,53.6,43.3,30.22,SSE,157,2.7,-999.0,68,-99.99,,,0.00,Acu-Link.com,2013-04-23 14:21:00,
2013-04-23 10:37:00,55.4,44.6,30.21,SSE,157,2.7,-999.0,67,-99.99,,,0.00,Acu-Link.com,2013-04-23 14:37:00,
2013-04-23 10:52:00,56.8,45.2,30.20,SSE,157,2.2,-999.0,65,-99.99,,,0.00,Acu-Link.com,2013-04-23 14:52:00,
2013-04-23 11:07:00,59.2,47.4,30.20,ENE,67,3.1,-999.0,65,-99.99,,,0.00,Acu-Link.com,2013-04-23 15:07:00,
2013-04-23 11:22:00,61.5,49.2,30.20,SSW,202,5.1,-999.0,64,-99.99,,,0.00,Acu-Link.com,2013-04-23 15:22:00,
2013-04-23 11:37:00,61.0,48.3,30.21,SSE,157,3.8,-999.0,63,-99.99,,,0.00,Acu-Link.com,2013-04-23 15:37:00,
2013-04-23 11:53:00,61.9,47.8,30.19,SSE,157,4.3,-999.0,60,-99.99,,,0.00,Acu-Link.com,2013-04-23 15:53:00,
2013-04-23 12:08:00,64.0,49.0,30.18,East,90,2.2,-999.0,58,-99.99,,,0.00,Acu-Link.com,2013-04-23 16:08:00,
2013-04-23 12:23:00,64.0,50.3,30.17,SE,135,2.7,-999.0,61,-99.99,,,0.00,Acu-Link.com,2013-04-23 16:23:00,
2013-04-23 12:38:00,66.0,51.7,30.16,NE,45,3.8,-999.0,60,-99.99,,,0.00,Acu-Link.com,2013-04-23 16:38:00,
2013-04-23 12:53:00,68.2,51.4,30.14,SSE,157,2.7,-999.0,55,-99.99,,,0.00,Acu-Link.com,2013-04-23 16:53:00,
2013-04-23 13:09:00,66.6,50.4,30.14,ENE,67,1.1,-999.0,56,-99.99,,,0.00,Acu-Link.com,2013-04-23 17:09:00,
2013-04-23 13:24:00,69.3,50.9,30.13,NE,45,4.7,-999.0,52,-99.99,,,0.00,Acu-Link.com,2013-04-23 17:24:00,
2013-04-23 13:39:00,68.7,51.4,30.12,NE,45,4.7,-999.0,54,-99.99,,,0.00,Acu-Link.com,2013-04-23 17:39:00,
2013-04-23 13:54:00,68.7,47.1,30.11,SSE,157,3.1,-999.0,46,-99.99,,,0.00,Acu-Link.com,2013-04-23 17:54:00,
2013-04-23 14:10:00,70.9,50.2,30.10,NNE,22,1.6,-999.0,48,-99.99,,,0.00,Acu-Link.com,2013-04-23 18:10:00,
2013-04-23 14:25:00,70.7,48.3,30.10,WNW,292,5.8,-999.0,45,-99.99,,,0.00,Acu-Link.com,2013-04-23 18:25:00,
2013-04-23 14:40:00,72.0,45.6,30.08,NNW,337,2.2,-999.0,39,-99.99,,,0.00,Acu-Link.com,2013-04-23 18:40:00,
2013-04-23 14:55:00,71.2,46.3,30.08,SW,225,5.8,-999.0,41,-99.99,,,0.00,Acu-Link.com,2013-04-23 18:55:00,
2013-04-23 15:10:00,71.2,43.6,30.08,SSE,157,2.2,-999.0,37,-99.99,,,0.00,Acu-Link.com,2013-04-23 19:10:00,
2013-04-23 15:26:00,73.2,43.9,30.07,South,180,5.1,-999.0,35,-99.99,,,0.00,Acu-Link.com,2013-04-23 19:26:00,
2013-04-23 15:41:00,72.5,46.1,30.05,East,90,3.1,-999.0,39,-99.99,,,0.00,Acu-Link.com,2013-04-23 19:41:00,
2013-04-23 15:56:00,72.1,45.1,30.05,SSE,157,3.1,-999.0,38,-99.99,,,0.00,Acu-Link.com,2013-04-23 19:56:00,
2013-04-23 16:11:00,73.6,46.4,30.04,SE,135,2.2,-999.0,38,-99.99,,,0.00,Acu-Link.com,2013-04-23 20:11:00,
2013-04-23 16:26:00,73.0,40.6,30.04,ESE,112,3.8,-999.0,31,-99.99,,,0.00,Acu-Link.com,2013-04-23 20:26:00,
2013-04-23 16:41:00,73.9,39.7,30.03,ESE,112,1.1,-999.0,29,-99.99,,,0.00,Acu-Link.com,2013-04-23 20:41:00,
2013-04-23 16:57:00,73.8,37.7,30.03,NE,45,3.1,-999.0,27,-99.99,,,0.00,Acu-Link.com,2013-04-23 20:57:00,
2013-04-23 17:12:00,73.4,49.5,30.02,SSW,202,2.7,-999.0,43,-99.99,,,0.00,Acu-Link.com,2013-04-23 21:12:00,
2013-04-23 17:27:00,74.3,49.7,30.02,West,270,1.6,-999.0,42,-99.99,,,0.00,Acu-Link.com,2013-04-23 21:27:00,
2013-04-23 17:42:00,73.8,49.9,30.01,South,180,3.1,-999.0,43,-99.99,,,0.00,Acu-Link.com,2013-04-23 21:42:00,
2013-04-23 17:58:00,73.0,50.4,30.01,NE,45,5.1,-999.0,45,-99.99,,,0.00,Acu-Link.com,2013-04-23 21:58:00,
2013-04-23 18:13:00,72.5,49.9,30.01,NNE,22,1.6,-999.0,45,-99.99,,,0.00,Acu-Link.com,2013-04-23 22:13:00,
2013-04-23 18:28:00,72.5,51.7,30.01,WNW,292,2.2,-999.0,48,-99.99,,,0.00,Acu-Link.com,2013-04-23 22:28:00,
2013-04-23 18:43:00,69.8,50.3,30.02,SW,225,5.1,-999.0,50,-99.99,,,0.00,Acu-Link.com,2013-04-23 22:43:00,
2013-04-23 18:58:00,69.8,50.8,30.03,WSW,247,3.8,-999.0,51,-99.99,,,0.00,Acu-Link.com,2013-04-23 22:58:00,
2013-04-23 19:14:00,66.9,51.2,30.03,SW,225,4.7,-999.0,57,-99.99,,,0.00,Acu-Link.com,2013-04-23 23:14:00,
2013-04-23 19:29:00,65.7,50.5,30.04,SSW,202,5.8,-999.0,58,-99.99,,,0.00,Acu-Link.com,2013-04-23 23:29:00,
2013-04-23 19:44:00,64.6,50.4,30.04,SSW,202,2.7,-999.0,60,-99.99,,,0.00,Acu-Link.com,2013-04-23 23:44:00,
2013-04-23 19:59:00,62.8,50.0,30.04,SSW,202,0.0,-999.0,63,-99.99,,,0.00,Acu-Link.com,2013-04-23 23:59:00,
2013-04-23 20:14:00,61.7,50.2,30.04,SSW,202,1.1,-999.0,66,-99.99,,,0.00,Acu-Link.com,2013-04-24 00:14:00,
2013-04-23 20:30:00,59.9,51.2,30.05,SSW,202,1.1,-999.0,73,-99.99,,,0.00,Acu-Link.com,2013-04-24 00:30:00,
2013-04-23 20:45:00,58.6,50.7,30.06,SSW,202,2.2,-999.0,75,-99.99,,,0.00,Acu-Link.com,2013-04-24 00:45:00,
2013-04-23 21:00:00,57.6,50.8,30.06,SSW,202,1.1,-999.0,78,-99.99,,,0.00,Acu-Link.com,2013-04-24 01:00:00,
2013-04-23 21:15:00,56.8,51.1,30.05,SSW,202,1.6,-999.0,81,-99.99,,,0.00,Acu-Link.com,2013-04-24 01:15:00,
2013-04-23 21:31:00,55.8,50.0,30.06,SSW,202,2.2,-999.0,81,-99.99,,,0.00,Acu-Link.com,2013-04-24 01:31:00,
2013-04-23 21:46:00,55.0,50.0,30.06,SSW,202,3.1,-999.0,83,-99.99,,,0.00,Acu-Link.com,2013-04-24 01:46:00,
2013-04-23 22:01:00,54.3,50.2,30.06,SSW,202,0.0,-999.0,86,-99.99,,,0.00,Acu-Link.com,2013-04-24 02:01:00,
2013-04-23 22:16:00,53.8,50.6,30.05,SSW,202,1.6,-999.0,89,-99.99,,,0.00,Acu-Link.com,2013-04-24 02:16:00,
2013-04-23 22:31:00,52.7,49.8,30.05,SSW,202,1.6,-999.0,90,-99.99,,,0.00,Acu-Link.com,2013-04-24 02:31:00,
2013-04-23 22:46:00,51.8,49.8,30.05,SSW,202,2.2,-999.0,93,-99.99,,,0.00,Acu-Link.com,2013-04-24 02:46:00,
2013-04-23 23:02:00,50.9,48.9,30.06,SSW,202,2.2,-999.0,93,-99.99,,,0.00,Acu-Link.com,2013-04-24 03:02:00,
2013-04-23 23:17:00,49.8,48.2,30.06,SSW,202,0.0,-999.0,94,-99.99,,,0.00,Acu-Link.com,2013-04-24 03:17:00,
2013-04-23 23:32:00,49.1,47.7,30.07,SSW,202,1.1,-999.0,95,-99.99,,,0.00,Acu-Link.com,2013-04-24 03:32:00,
2013-04-23 23:47:00,48.2,47.1,30.07,SSW,202,0.0,-999.0,96,-99.99,,,0.00,Acu-Link.com,2013-04-24 03:47:00,